createdAt,value
2023-02-19T00:00:46.965Z,101204.81
2023-02-19T00:02:50.999Z,101213.41
2023-02-19T00:04:53.927Z,101198.69
2023-02-19T00:06:56.955Z,101195.13
2023-02-19T00:09:00.574Z,101183.00
2023-02-19T00:11:06.351Z,101190.13
2023-02-19T00:13:09.270Z,101185.78
2023-02-19T00:15:12.055Z,101184.84
2023-02-19T00:17:14.850Z,101176.03
2023-02-19T00:19:20.923Z,101179.53
2023-02-19T00:21:24.537Z,101181.31
2023-02-19T00:23:28.025Z,101173.63
2023-02-19T00:25:30.787Z,101182.06
2023-02-19T00:27:35.055Z,101183.91
2023-02-19T00:29:37.834Z,101183.88
2023-02-19T00:31:41.134Z,101195.28
2023-02-19T00:33:44.302Z,101189.19
2023-02-19T00:35:47.118Z,101196.97
2023-02-19T00:37:50.044Z,101193.66
2023-02-19T00:39:52.869Z,101194.47
2023-02-19T00:41:55.696Z,101195.47
2023-02-19T00:44:01.994Z,101183.25
2023-02-19T00:46:05.070Z,101185.81
2023-02-19T00:48:08.068Z,101182.25
2023-02-19T00:50:11.157Z,101179.53
2023-02-19T00:52:13.940Z,101186.59
2023-02-19T00:54:17.261Z,101191.72
2023-02-19T00:56:20.081Z,101196.66
2023-02-19T00:58:22.888Z,101194.91
2023-02-19T01:00:27.180Z,101200.94
2023-02-19T01:02:29.983Z,101186.28
2023-02-19T01:04:33.133Z,101199.88
2023-02-19T01:06:36.070Z,101201.66
2023-02-19T01:08:39.185Z,101189.59
2023-02-19T01:10:42.234Z,101194.75
2023-02-19T01:12:45.384Z,101193.94
2023-02-19T01:14:48.156Z,101196.44
2023-02-19T01:16:52.325Z,101215.47
2023-02-19T01:18:55.955Z,101214.38
2023-02-19T01:20:58.777Z,101214.38
2023-02-19T01:23:01.676Z,101203.06
2023-02-19T01:25:04.631Z,101196.19
2023-02-19T01:27:07.679Z,101206.59
2023-02-19T01:29:11.109Z,101196.06
2023-02-19T01:31:15.848Z,101189.88
2023-02-19T01:33:19.836Z,101180.31
2023-02-19T01:35:22.830Z,101176.91
2023-02-19T01:37:26.031Z,101183.00
2023-02-19T01:39:28.855Z,101178.47
2023-02-19T01:41:32.860Z,101178.63
2023-02-19T01:43:55.938Z,101170.09
2023-02-19T01:45:58.747Z,101179.31
2023-02-19T01:48:10.895Z,101191.97
2023-02-19T01:50:15.206Z,101191.19
2023-02-19T01:52:25.659Z,101180.63
2023-02-19T01:54:32.416Z,101169.34
2023-02-19T01:56:38.322Z,101173.75
2023-02-19T01:58:42.078Z,101166.16
2023-02-19T02:00:44.990Z,101172.84
2023-02-19T02:02:52.499Z,101166.91
2023-02-19T02:04:55.357Z,101169.38
2023-02-19T02:07:02.785Z,101159.78
2023-02-19T02:09:23.521Z,101154.56
2023-02-19T02:11:26.482Z,101147.50
2023-02-19T02:13:30.530Z,101152.44
2023-02-19T02:15:41.425Z,101156.75
2023-02-19T02:17:54.780Z,101150.75
2023-02-19T02:20:14.263Z,101151.66
2023-02-19T02:22:22.059Z,101144.69
2023-02-19T02:24:50.887Z,101139.50
2023-02-19T02:27:07.637Z,101132.44
2023-02-19T02:29:27.890Z,101127.63
2023-02-19T02:31:36.889Z,101130.16
2023-02-19T02:33:45.357Z,101126.31
2023-02-19T02:35:51.204Z,101132.38
2023-02-19T02:37:59.385Z,101134.13
2023-02-19T02:40:03.325Z,101127.22
2023-02-19T02:42:24.648Z,101128.16
2023-02-19T02:44:36.048Z,101123.09
2023-02-19T02:46:43.488Z,101128.13
2023-02-19T02:48:53.772Z,101121.91
2023-02-19T02:51:01.243Z,101117.84
2023-02-19T02:53:30.038Z,101120.44
2023-02-19T02:55:37.123Z,101118.72
2023-02-19T02:57:40.027Z,101121.44
2023-02-19T02:59:44.190Z,101128.63
2023-02-19T03:02:10.730Z,101128.78
2023-02-19T03:04:20.831Z,101120.56
2023-02-19T03:06:26.024Z,101117.97
2023-02-19T03:08:32.117Z,101121.63
2023-02-19T03:10:38.842Z,101117.38
2023-02-19T03:13:01.639Z,101118.88
2023-02-19T03:15:28.687Z,101118.06
2023-02-19T03:17:53.247Z,101116.31
2023-02-19T03:19:59.456Z,101118.88
2023-02-19T03:22:10.730Z,101120.66
2023-02-19T03:24:34.219Z,101126.34
2023-02-19T03:26:38.834Z,101141.75
2023-02-19T03:29:04.247Z,101124.66
2023-02-19T03:31:10.662Z,101110.88
2023-02-19T03:33:17.832Z,101115.84
2023-02-19T03:35:24.025Z,101125.59
2023-02-19T03:37:31.660Z,101115.13
2023-02-19T03:39:44.176Z,101111.97
2023-02-19T03:41:57.048Z,101105.22
2023-02-19T03:44:08.873Z,101120.56
2023-02-19T03:46:16.792Z,101117.72
2023-02-19T03:48:28.483Z,101121.69
2023-02-19T03:50:42.535Z,101114.94
2023-02-19T03:52:54.600Z,101109.69
2023-02-19T03:55:04.252Z,101103.75
2023-02-19T03:57:17.430Z,101124.63
2023-02-19T03:59:27.322Z,101123.34
2023-02-19T04:01:37.820Z,101129.47
2023-02-19T04:03:47.000Z,101127.66
2023-02-19T04:05:56.174Z,101133.84
2023-02-19T04:08:05.176Z,101135.47
2023-02-19T04:10:16.014Z,101138.25
2023-02-19T04:12:22.403Z,101138.25
2023-02-19T04:14:29.919Z,101128.88
2023-02-19T04:16:35.696Z,101124.56
2023-02-19T04:18:41.956Z,101116.94
2023-02-19T04:20:48.641Z,101132.69
2023-02-19T04:22:52.361Z,101127.16
2023-02-19T04:24:56.598Z,101134.38
2023-02-19T04:27:00.187Z,101130.16
2023-02-19T04:29:03.275Z,101131.03
2023-02-19T04:31:07.086Z,101132.72
2023-02-19T04:33:10.357Z,101136.97
2023-02-19T04:35:13.185Z,101131.03
2023-02-19T04:37:17.306Z,101143.31
2023-02-19T04:39:20.282Z,101137.22
2023-02-19T04:41:23.067Z,101139.56
2023-02-19T04:43:25.874Z,101139.44
2023-02-19T04:45:28.689Z,101154.16
2023-02-19T04:47:33.022Z,101136.16
2023-02-19T04:49:35.760Z,101139.75
2023-02-19T04:51:39.511Z,101140.56
2023-02-19T04:53:43.738Z,101127.63
2023-02-19T04:55:47.999Z,101138.66
2023-02-19T04:57:50.828Z,101142.25
2023-02-19T04:59:53.603Z,101139.03
2023-02-19T05:01:57.454Z,101139.09
2023-02-19T05:04:00.285Z,101136.47
2023-02-19T05:06:04.346Z,101143.41
2023-02-19T05:08:07.218Z,101138.78
2023-02-19T05:10:11.456Z,101142.88
2023-02-19T05:12:14.268Z,101140.25
2023-02-19T05:14:17.144Z,101147.06
2023-02-19T05:16:20.134Z,101147.78
2023-02-19T05:18:23.349Z,101148.41
2023-02-19T05:20:26.152Z,101151.94
2023-02-19T05:22:29.628Z,101145.94
2023-02-19T05:24:32.421Z,101150.41
2023-02-19T05:26:36.868Z,101147.78
2023-02-19T05:28:39.665Z,101159.94
2023-02-19T05:30:42.469Z,101162.44
2023-02-19T05:32:45.399Z,101161.59
2023-02-19T05:34:48.204Z,101159.53
2023-02-19T05:36:51.092Z,101152.06
2023-02-19T05:38:55.251Z,101155.56
2023-02-19T05:41:08.689Z,101166.03
2023-02-19T05:43:13.452Z,101160.88
2023-02-19T05:45:16.368Z,101161.56
2023-02-19T05:47:19.152Z,101168.56
2023-02-19T05:49:21.985Z,101162.34
2023-02-19T05:51:27.149Z,101155.22
2023-02-19T05:53:30.075Z,101160.31
2023-02-19T05:55:36.713Z,101166.31
2023-02-19T05:57:43.413Z,101169.81
2023-02-19T05:59:47.891Z,101173.41
2023-02-19T06:01:51.724Z,101169.91
2023-02-19T06:03:57.318Z,101178.53
2023-02-19T06:06:00.509Z,101178.38
2023-02-19T06:08:03.285Z,101166.88
2023-02-19T06:10:06.845Z,101163.34
2023-02-19T06:12:09.613Z,101169.94
2023-02-19T06:14:13.469Z,101174.34
2023-02-19T06:16:18.609Z,101176.69
2023-02-19T06:18:21.428Z,101182.69
2023-02-19T06:20:26.062Z,101187.03
2023-02-19T06:22:29.055Z,101179.91
2023-02-19T06:24:31.901Z,101182.56
2023-02-19T06:26:34.761Z,101189.72
2023-02-19T06:28:38.131Z,101194.81
2023-02-19T06:30:42.787Z,101193.44
2023-02-19T06:32:46.946Z,101202.31
2023-02-19T06:34:49.727Z,101205.00
2023-02-19T06:36:52.573Z,101207.06
2023-02-19T06:38:55.373Z,101203.09
2023-02-19T06:41:01.668Z,101208.38
2023-02-19T06:43:04.470Z,101206.56
2023-02-19T06:45:07.664Z,101199.66
2023-02-19T06:47:10.444Z,101213.41
2023-02-19T06:49:15.256Z,101210.00
2023-02-19T06:51:22.525Z,101211.91
2023-02-19T06:53:25.472Z,101218.66
2023-02-19T06:55:28.431Z,101223.31
2023-02-19T06:57:31.280Z,101224.47
2023-02-19T06:59:34.073Z,101243.75
2023-02-19T07:01:37.902Z,101242.16
2023-02-19T07:03:40.682Z,101250.78
2023-02-19T07:05:44.825Z,101248.31
2023-02-19T07:07:47.583Z,101249.47
2023-02-19T07:09:50.361Z,101263.16
2023-02-19T07:11:53.131Z,101259.00
2023-02-19T07:13:56.768Z,101265.25
2023-02-19T07:16:00.570Z,101271.53
2023-02-19T07:18:05.212Z,101275.22
2023-02-19T07:20:08.159Z,101272.66
2023-02-19T07:22:12.345Z,101291.47
2023-02-19T07:24:15.242Z,101287.78
2023-02-19T07:26:19.999Z,101285.22
2023-02-19T07:28:22.619Z,101292.16
2023-02-19T07:30:25.536Z,101285.34
2023-02-19T07:32:28.548Z,101287.97
2023-02-19T07:34:31.301Z,101293.97
2023-02-19T07:36:34.063Z,101279.47
2023-02-19T07:38:38.170Z,101286.56
2023-02-19T07:40:40.986Z,101286.50
2023-02-19T07:42:43.804Z,101282.91
2023-02-19T07:44:46.551Z,101293.88
2023-02-19T07:46:49.327Z,101289.47
2023-02-19T07:48:52.121Z,101285.84
2023-02-19T07:50:56.375Z,101283.47
2023-02-19T07:52:59.771Z,101273.25
2023-02-19T07:55:03.879Z,101270.91
2023-02-19T07:57:06.630Z,101276.91
2023-02-19T07:59:09.407Z,101291.53
2023-02-19T08:01:15.582Z,101282.91
2023-02-19T08:03:17.425Z,101289.63
2023-02-19T08:05:20.215Z,101302.63
2023-02-19T08:07:22.995Z,101308.78
2023-02-19T08:09:25.705Z,101315.78
2023-02-19T08:11:47.451Z,101315.75
2023-02-19T08:13:50.161Z,101321.03
2023-02-19T08:15:57.758Z,101321.00
2023-02-19T08:18:04.829Z,101313.97
2023-02-19T08:20:08.368Z,101323.06
2023-02-19T08:22:11.295Z,101325.66
2023-02-19T08:24:14.093Z,101317.84
2023-02-19T08:26:17.146Z,101319.72
2023-02-19T08:28:21.294Z,101327.69
2023-02-19T08:30:24.326Z,101319.78
2023-02-19T08:32:27.136Z,101331.19
2023-02-19T08:34:29.900Z,101336.25
2023-02-19T08:36:32.824Z,101342.19
2023-02-19T08:38:37.645Z,101343.94
2023-02-19T08:40:41.799Z,101354.53
2023-02-19T08:42:44.603Z,101351.00
2023-02-19T08:44:48.730Z,101358.06
2023-02-19T08:46:51.516Z,101352.75
2023-02-19T08:48:54.508Z,101368.44
2023-02-19T08:50:58.381Z,101369.38
2023-02-19T08:53:01.956Z,101366.72
2023-02-19T08:55:06.159Z,101373.84
2023-02-19T08:57:09.115Z,101384.50
2023-02-19T08:59:11.858Z,101381.13
2023-02-19T09:01:18.266Z,101387.47
2023-02-19T09:03:28.196Z,101387.50
2023-02-19T09:05:31.466Z,101396.25
2023-02-19T09:07:34.606Z,101394.63
2023-02-19T09:09:38.366Z,101390.47
2023-02-19T09:11:41.187Z,101403.44
2023-02-19T09:13:44.136Z,101396.63
2023-02-19T09:15:47.017Z,101399.22
2023-02-19T09:17:53.751Z,101399.25
2023-02-19T09:19:56.524Z,101405.25
2023-02-19T09:21:59.477Z,101410.38
2023-02-19T09:24:02.445Z,101408.44
2023-02-19T09:26:09.299Z,101407.03
2023-02-19T09:28:12.218Z,101407.94
2023-02-19T09:30:15.084Z,101413.81
2023-02-19T09:32:19.350Z,101415.38
2023-02-19T09:34:23.670Z,101416.28
2023-02-19T09:36:26.622Z,101411.94
2023-02-19T09:38:30.856Z,101412.19
2023-02-19T09:40:33.967Z,101414.81
2023-02-19T09:42:36.954Z,101421.78
2023-02-19T09:44:42.498Z,101412.63
2023-02-19T09:46:51.802Z,101416.25
2023-02-19T09:48:59.920Z,101412.66
2023-02-19T09:51:05.315Z,101411.88
2023-02-19T09:53:16.343Z,101413.72
2023-02-19T09:55:28.528Z,101411.22
2023-02-19T09:57:35.692Z,101421.78
2023-02-19T09:59:43.372Z,101417.31
2023-02-19T10:01:49.329Z,101431.31
2023-02-19T10:03:52.107Z,101418.16
2023-02-19T10:05:56.449Z,101409.53
2023-02-19T10:08:01.554Z,101405.53
2023-02-19T10:10:23.157Z,101402.97
2023-02-19T10:12:28.348Z,101403.06
2023-02-19T10:14:36.089Z,101407.63
2023-02-19T10:16:43.080Z,101403.59
2023-02-19T10:18:47.062Z,101402.56
2023-02-19T10:20:51.509Z,101401.59
2023-02-19T10:23:01.475Z,101399.91
2023-02-19T10:25:04.588Z,101406.03
2023-02-19T10:27:11.330Z,101407.75
2023-02-19T10:29:14.099Z,101405.19
2023-02-19T10:31:22.345Z,101406.16
2023-02-19T10:33:25.993Z,101401.09
2023-02-19T10:35:29.862Z,101409.72
2023-02-19T10:37:33.662Z,101413.03
2023-02-19T10:39:44.919Z,101415.66
2023-02-19T10:41:47.971Z,101418.09
2023-02-19T10:43:55.537Z,101422.59
2023-02-19T10:46:00.640Z,101430.50
2023-02-19T10:48:04.451Z,101434.78
2023-02-19T10:50:08.733Z,101427.00
2023-02-19T10:52:20.030Z,101429.06
2023-02-19T10:54:28.465Z,101433.00
2023-02-19T10:56:33.714Z,101435.03
2023-02-19T10:58:37.855Z,101434.06
2023-02-19T11:00:40.741Z,101437.25
2023-02-19T11:02:44.671Z,101434.81
2023-02-19T11:05:06.101Z,101445.25
2023-02-19T11:07:10.608Z,101443.59
2023-02-19T11:09:26.645Z,101449.63
2023-02-19T11:11:37.212Z,101451.47
2023-02-19T11:13:43.319Z,101458.47
2023-02-19T11:15:52.806Z,101455.63
2023-02-19T11:17:57.771Z,101467.63
2023-02-19T11:20:04.611Z,101479.19
2023-02-19T11:22:20.856Z,101469.47
2023-02-19T11:24:28.984Z,101482.94
2023-02-19T11:26:38.060Z,101489.81
2023-02-19T11:28:44.229Z,101493.16
2023-02-19T11:30:48.426Z,101482.88
2023-02-19T11:32:51.264Z,101480.69
2023-02-19T11:35:14.865Z,101480.66
2023-02-19T11:37:19.232Z,101471.31
2023-02-19T11:39:28.917Z,101474.06
2023-02-19T11:41:50.969Z,101458.50
2023-02-19T11:44:13.808Z,101464.78
2023-02-19T11:46:25.748Z,101457.91
2023-02-19T11:48:55.368Z,101452.03
2023-02-19T11:51:14.914Z,101446.75
2023-02-19T11:53:26.010Z,101457.34
2023-02-19T11:55:43.593Z,101466.00
2023-02-19T11:57:49.128Z,101466.75
2023-02-19T12:00:03.359Z,101470.13
2023-02-19T12:02:33.462Z,101466.69
2023-02-19T12:05:01.533Z,101468.28
2023-02-19T12:07:17.041Z,101470.94
2023-02-19T12:09:32.471Z,101477.13
2023-02-19T12:11:53.512Z,101468.63
2023-02-19T12:14:09.846Z,101468.75
2023-02-19T12:16:25.994Z,101477.44
2023-02-19T12:19:01.023Z,101464.19
2023-02-19T12:21:18.887Z,101464.09
2023-02-19T12:23:52.629Z,101469.34
2023-02-19T12:26:02.806Z,101470.78
2023-02-19T12:28:28.023Z,101473.47
2023-02-19T12:31:09.379Z,101463.75
2023-02-19T12:33:35.212Z,101461.19
2023-02-19T12:35:52.889Z,101459.47
2023-02-19T12:38:07.060Z,101461.03
2023-02-19T12:40:26.849Z,101452.13
2023-02-19T12:42:46.410Z,101453.09
2023-02-19T12:44:56.071Z,101457.31
2023-02-19T12:47:02.544Z,101451.31
2023-02-19T12:49:14.589Z,101462.47
2023-02-19T12:51:23.191Z,101459.06
2023-02-19T12:53:42.973Z,101473.31
2023-02-19T12:55:47.577Z,101467.44
2023-02-19T12:57:52.202Z,101461.59
2023-02-19T13:00:00.006Z,101464.38
2023-02-19T13:02:12.258Z,101460.09
2023-02-19T13:04:24.203Z,101462.34
2023-02-19T13:06:36.581Z,101463.13
2023-02-19T13:08:57.849Z,101467.44
2023-02-19T13:11:15.127Z,101463.16
2023-02-19T13:13:23.998Z,101467.44
2023-02-19T13:15:34.556Z,101467.69
2023-02-19T13:17:43.711Z,101461.53
2023-02-19T13:19:51.201Z,101457.06
2023-02-19T13:22:21.890Z,101462.28
2023-02-19T13:24:28.905Z,101454.41
2023-02-19T13:26:50.668Z,101452.66
2023-02-19T13:29:06.993Z,101449.06
2023-02-19T13:31:27.698Z,101439.47
2023-02-19T13:33:44.057Z,101438.63
2023-02-19T13:36:10.030Z,101435.19
2023-02-19T13:38:14.097Z,101429.97
2023-02-19T13:40:26.276Z,101423.78
2023-02-19T13:42:33.126Z,101424.53
2023-02-19T13:44:40.871Z,101427.97
2023-02-19T13:46:46.137Z,101425.53
2023-02-19T13:48:49.189Z,101430.06
2023-02-19T13:51:12.482Z,101434.50
2023-02-19T13:53:51.766Z,101429.97
2023-02-19T13:55:54.661Z,101442.84
2023-02-19T13:58:34.071Z,101437.75
2023-02-19T14:00:51.074Z,101435.66
2023-02-19T14:03:31.305Z,101430.25
2023-02-19T14:06:00.324Z,101435.41
2023-02-19T14:08:03.858Z,101448.50
2023-02-19T14:10:13.141Z,101440.94
2023-02-19T14:12:21.147Z,101433.81
2023-02-19T14:14:29.424Z,101440.81
2023-02-19T14:16:49.424Z,101452.31
2023-02-19T14:18:55.366Z,101455.81
2023-02-19T14:21:08.590Z,101459.22
2023-02-19T14:23:24.681Z,101474.06
2023-02-19T14:25:50.260Z,101469.72
2023-02-19T14:27:54.642Z,101481.97
2023-02-19T14:29:57.494Z,101479.97
2023-02-19T14:32:02.104Z,101492.88
2023-02-19T14:34:19.527Z,101494.56
2023-02-19T14:36:32.470Z,101487.63
2023-02-19T14:38:40.279Z,101483.19
2023-02-19T14:40:44.584Z,101485.84
2023-02-19T14:42:48.694Z,101480.69
2023-02-19T14:44:53.974Z,101472.91
2023-02-19T14:46:59.793Z,101477.31
2023-02-19T14:49:12.727Z,101473.00
2023-02-19T14:51:27.153Z,101478.25
2023-02-19T14:53:32.404Z,101477.28
2023-02-19T14:55:37.836Z,101480.66
2023-02-19T14:57:42.819Z,101486.88
2023-02-19T14:59:57.317Z,101493.16
2023-02-19T15:02:02.540Z,101494.06
2023-02-19T15:04:06.034Z,101495.78
2023-02-19T15:06:16.352Z,101492.19
2023-02-19T15:08:26.687Z,101495.72
2023-02-19T15:10:33.036Z,101491.25
2023-02-19T15:12:44.361Z,101499.16
2023-02-19T15:14:48.421Z,101502.72
2023-02-19T15:16:55.669Z,101506.84
2023-02-19T15:18:59.584Z,101504.25
2023-02-19T15:21:05.613Z,101508.47
2023-02-19T15:23:08.790Z,101510.19
2023-02-19T15:25:18.782Z,101510.28
2023-02-19T15:27:24.385Z,101507.81
2023-02-19T15:29:29.994Z,101513.09
2023-02-19T15:31:32.920Z,101516.69
2023-02-19T15:33:36.063Z,101519.94
2023-02-19T15:35:39.380Z,101535.59
2023-02-19T15:37:42.683Z,101531.91
2023-02-19T15:39:48.159Z,101536.09
2023-02-19T15:41:58.472Z,101531.75
2023-02-19T15:44:14.709Z,101538.63
2023-02-19T15:46:20.115Z,101543.63
2023-02-19T15:48:28.608Z,101538.06
2023-02-19T15:50:34.404Z,101541.56
2023-02-19T15:52:45.551Z,101544.19
2023-02-19T15:54:52.923Z,101550.28
2023-02-19T15:57:01.901Z,101556.75
2023-02-19T15:59:08.173Z,101568.81
2023-02-19T16:01:19.468Z,101560.84
2023-02-19T16:03:25.278Z,101567.59
2023-02-19T16:05:30.599Z,101564.78
2023-02-19T16:07:33.399Z,101570.00
2023-02-19T16:09:38.616Z,101570.50
2023-02-19T16:11:50.740Z,101568.56
2023-02-19T16:14:19.505Z,101568.56
2023-02-19T16:16:27.314Z,101562.50
2023-02-19T16:18:31.066Z,101562.28
2023-02-19T16:20:36.240Z,101558.69
2023-02-19T16:22:42.898Z,101556.13
2023-02-19T16:24:47.417Z,101557.28
2023-02-19T16:26:50.222Z,101544.22
2023-02-19T16:28:55.371Z,101554.06
2023-02-19T16:30:59.932Z,101545.28
2023-02-19T16:33:36.663Z,101545.91
2023-02-19T16:35:40.841Z,101546.69
2023-02-19T16:37:58.585Z,101550.25
2023-02-19T16:40:41.769Z,101549.31
2023-02-19T16:43:29.260Z,101553.31
2023-02-19T16:45:32.058Z,101553.41
2023-02-19T16:47:41.555Z,101548.88
2023-02-19T16:49:44.868Z,101549.63
2023-02-19T16:51:48.093Z,101547.84
2023-02-19T16:53:50.928Z,101554.63
2023-02-19T16:55:53.805Z,101553.94
2023-02-19T16:57:57.032Z,101557.31
2023-02-19T17:00:01.360Z,101548.56
2023-02-19T17:02:05.191Z,101564.16
2023-02-19T17:04:10.491Z,101562.56
2023-02-19T17:06:13.486Z,101567.59
2023-02-19T17:08:31.086Z,101571.09
2023-02-19T17:10:33.851Z,101574.47
2023-02-19T17:12:36.664Z,101583.28
2023-02-19T17:14:39.468Z,101590.44
2023-02-19T17:16:43.656Z,101585.25
2023-02-19T17:18:46.544Z,101598.22
2023-02-19T17:20:51.707Z,101592.84
2023-02-19T17:22:54.559Z,101588.41
2023-02-19T17:24:57.324Z,101590.16
2023-02-19T17:27:00.212Z,101604.81
2023-02-19T17:29:05.599Z,101599.38
2023-02-19T17:31:09.811Z,101603.34
2023-02-19T17:33:14.122Z,101618.06
2023-02-19T17:35:17.288Z,101616.09
2023-02-19T17:37:20.071Z,101614.31
2023-02-19T17:39:23.995Z,101631.78
2023-02-19T17:41:27.540Z,101634.44
2023-02-19T17:43:30.416Z,101636.25
2023-02-19T17:45:33.445Z,101644.25
2023-02-19T17:47:36.276Z,101643.34
2023-02-19T17:49:40.349Z,101645.13
2023-02-19T17:51:43.119Z,101647.72
2023-02-19T17:53:46.458Z,101645.97
2023-02-19T17:55:49.339Z,101648.53
2023-02-19T17:57:53.322Z,101651.66
2023-02-19T17:59:56.263Z,101653.13
2023-02-19T18:01:58.969Z,101655.69
2023-02-19T18:04:01.870Z,101658.53
2023-02-19T18:06:06.607Z,101664.78
2023-02-19T18:08:30.718Z,101668.13
2023-02-19T18:10:33.525Z,101670.75
2023-02-19T18:12:36.423Z,101677.16
2023-02-19T18:14:39.223Z,101669.22
2023-02-19T18:16:48.761Z,101673.41
2023-02-19T18:18:53.073Z,101672.41
2023-02-19T18:20:55.920Z,101678.31
2023-02-19T18:23:00.050Z,101687.19
2023-02-19T18:25:02.941Z,101681.03
2023-02-19T18:27:05.818Z,101689.66
2023-02-19T18:29:08.616Z,101684.34
2023-02-19T18:31:11.976Z,101693.41
2023-02-19T18:33:15.065Z,101693.59
2023-02-19T18:35:19.577Z,101695.47
2023-02-19T18:37:23.059Z,101698.94
2023-02-19T18:39:27.238Z,101711.16
2023-02-19T18:41:30.007Z,101710.16
2023-02-19T18:43:32.793Z,101707.31
2023-02-19T18:45:37.235Z,101710.75
2023-02-19T18:47:40.081Z,101715.28
2023-02-19T18:49:46.747Z,101714.25
2023-02-19T18:51:49.550Z,101717.72
2023-02-19T18:53:52.371Z,101728.03
2023-02-19T18:55:56.814Z,101735.03
2023-02-19T18:57:59.599Z,101732.38
2023-02-19T19:00:02.382Z,101725.38
2023-02-19T19:02:07.757Z,101727.16
2023-02-19T19:04:10.689Z,101725.84
2023-02-19T19:06:13.526Z,101716.06
2023-02-19T19:08:16.367Z,101710.88
2023-02-19T19:10:20.076Z,101717.09
2023-02-19T19:12:24.226Z,101717.09
2023-02-19T19:14:28.350Z,101713.56
2023-02-19T19:16:31.594Z,101710.97
2023-02-19T19:18:38.026Z,101713.72
2023-02-19T19:20:40.925Z,101710.03
2023-02-19T19:22:43.812Z,101712.47
2023-02-19T19:24:46.576Z,101717.00
2023-02-19T19:26:50.757Z,101721.31
2023-02-19T19:28:55.149Z,101727.31
2023-02-19T19:30:58.078Z,101721.91
2023-02-19T19:33:03.385Z,101719.19
2023-02-19T19:35:06.531Z,101714.03
2023-02-19T19:37:09.422Z,101713.84
2023-02-19T19:39:12.391Z,101708.63
2023-02-19T19:41:15.675Z,101716.44
2023-02-19T19:43:18.502Z,101722.34
2023-02-19T19:45:22.856Z,101720.69
2023-02-19T19:47:25.744Z,101718.75
2023-02-19T19:49:28.602Z,101709.78
2023-02-19T19:51:32.847Z,101720.31
2023-02-19T19:53:35.713Z,101723.22
2023-02-19T19:55:38.560Z,101727.75
2023-02-19T19:57:41.379Z,101726.22
2023-02-19T19:59:44.193Z,101728.53
2023-02-19T20:01:53.310Z,101723.13
2023-02-19T20:03:56.236Z,101739.53
2023-02-19T20:05:59.131Z,101736.06
2023-02-19T20:08:02.124Z,101739.50
2023-02-19T20:10:06.359Z,101738.63
2023-02-19T20:12:10.752Z,101732.81
2023-02-19T20:14:14.305Z,101731.84
2023-02-19T20:16:17.152Z,101730.41
2023-02-19T20:18:21.743Z,101728.16
2023-02-19T20:20:24.639Z,101724.84
2023-02-19T20:22:27.521Z,101724.91
2023-02-19T20:24:30.923Z,101723.22
2023-02-19T20:26:33.724Z,101722.91
2023-02-19T20:28:36.680Z,101726.88
2023-02-19T20:30:39.503Z,101737.75
2023-02-19T20:32:42.387Z,101732.59
2023-02-19T20:34:46.548Z,101743.09
2023-02-19T20:36:50.224Z,101747.03
2023-02-19T20:38:53.084Z,101747.75
2023-02-19T20:40:56.462Z,101746.88
2023-02-19T20:43:00.997Z,101751.06
2023-02-19T20:45:03.955Z,101754.16
2023-02-19T20:47:06.787Z,101743.75
2023-02-19T20:49:09.704Z,101756.69
2023-02-19T20:51:13.952Z,101754.97
2023-02-19T20:53:16.666Z,101759.13
2023-02-19T20:55:19.503Z,101754.00
2023-02-19T20:57:23.513Z,101752.06
2023-02-19T20:59:30.443Z,101755.41
2023-02-19T21:01:33.209Z,101754.69
2023-02-19T21:03:36.109Z,101759.78
2023-02-19T21:05:39.850Z,101753.81
2023-02-19T21:07:44.088Z,101763.56
2023-02-19T21:09:46.889Z,101751.50
2023-02-19T21:11:49.787Z,101753.94
2023-02-19T21:13:52.595Z,101751.28
2023-02-19T21:15:55.553Z,101744.41
2023-02-19T21:17:58.367Z,101747.97
2023-02-19T21:20:01.122Z,101747.97
2023-02-19T21:22:03.894Z,101750.53
2023-02-19T21:24:10.308Z,101745.44
2023-02-19T21:26:13.373Z,101744.84
2023-02-19T21:28:16.410Z,101739.84
2023-02-19T21:30:19.592Z,101738.72
2023-02-19T21:32:22.540Z,101741.31
2023-02-19T21:34:27.274Z,101738.63
2023-02-19T21:36:30.228Z,101743.56
2023-02-19T21:38:33.068Z,101746.19
2023-02-19T21:40:37.625Z,101744.69
2023-02-19T21:42:40.510Z,101743.75
2023-02-19T21:44:43.324Z,101747.28
2023-02-19T21:46:46.200Z,101755.88
2023-02-19T21:48:49.567Z,101756.00
2023-02-19T21:50:52.376Z,101756.81
2023-02-19T21:52:55.169Z,101769.47
2023-02-19T21:54:58.033Z,101769.38
2023-02-19T21:57:04.208Z,101775.50
2023-02-19T21:59:07.046Z,101772.25
2023-02-19T22:01:09.930Z,101774.06
2023-02-19T22:03:16.796Z,101777.53
2023-02-19T22:05:19.669Z,101773.97
2023-02-19T22:07:23.026Z,101779.22
2023-02-19T22:09:25.904Z,101780.03
2023-02-19T22:11:28.876Z,101772.34
2023-02-19T22:13:32.980Z,101774.78
2023-02-19T22:15:35.803Z,101768.53
2023-02-19T22:17:39.305Z,101764.06
2023-02-19T22:19:42.124Z,101774.41
2023-02-19T22:21:45.652Z,101762.34
2023-02-19T22:23:50.194Z,101775.38
2023-02-19T22:25:53.123Z,101763.56
2023-02-19T22:27:55.964Z,101760.38
2023-02-19T22:30:00.265Z,101770.53
2023-02-19T22:32:03.167Z,101776.56
2023-02-19T22:34:06.128Z,101787.00
2023-02-19T22:36:15.347Z,101787.00
2023-02-19T22:38:18.117Z,101774.06
2023-02-19T22:40:20.896Z,101774.91
2023-02-19T22:42:24.203Z,101777.38
2023-02-19T22:44:27.047Z,101786.97
2023-02-19T22:46:31.854Z,101781.06
2023-02-19T22:48:34.497Z,101783.22
2023-02-19T22:50:37.293Z,101779.81
2023-02-19T22:52:40.067Z,101784.06
2023-02-19T22:54:42.875Z,101783.53
2023-02-19T22:56:45.614Z,101781.09
2023-02-19T22:58:48.446Z,101779.59
2023-02-19T23:00:51.314Z,101782.31
2023-02-19T23:02:55.477Z,101795.19
2023-02-19T23:04:58.270Z,101789.13
2023-02-19T23:07:01.126Z,101791.66
2023-02-19T23:09:06.546Z,101786.47
2023-02-19T23:11:09.829Z,101785.59
2023-02-19T23:13:12.647Z,101801.03
2023-02-19T23:15:15.480Z,101799.03
2023-02-19T23:17:18.280Z,101799.94
2023-02-19T23:19:22.643Z,101805.03
2023-02-19T23:21:25.607Z,101799.94
2023-02-19T23:23:28.439Z,101807.56
2023-02-19T23:25:31.243Z,101800.59
2023-02-19T23:27:34.080Z,101805.44
2023-02-19T23:29:36.888Z,101795.94
2023-02-19T23:31:39.810Z,101789.88
2023-02-19T23:33:43.474Z,101799.34
2023-02-19T23:35:47.572Z,101813.84
2023-02-19T23:37:50.448Z,101805.13
2023-02-19T23:39:53.392Z,101787.97
2023-02-19T23:41:58.106Z,101790.75
2023-02-19T23:44:00.885Z,101787.22
2023-02-19T23:46:03.931Z,101793.94
2023-02-19T23:48:06.889Z,101794.50
2023-02-19T23:50:10.394Z,101795.44
2023-02-19T23:52:14.627Z,101793.00
2023-02-19T23:54:17.459Z,101805.84
2023-02-19T23:56:24.076Z,101795.44
2023-02-19T23:58:26.945Z,101803.44
